Dock III — D5PE5 — position and weather

sailwx.info

Track history (hours):
 
Tides and Currents Weather Stations Pressure Air Temp Water Temp Dewpoint Dewpoint Depression Visibility Wind Speed Wind Dir Waves Ship Positions

Dock III

Last reported at 2018-Aug-14 13:51 UTC. Time now 2018-Aug-14 15:18 UTC.
Position N 37°51' E 025°41'.

Length 169 m; draft 5.6 m.

Type: Cargo ship. MMSI: 305351000.

Date/timePositionNaut miles runAvg speedWind from/ knotsBaromVisibWave heightAir tempDewpointWater temp
2018-Aug-14 13:51N 37°51' E 025°41'3 7.2
2018-Aug-14 13:30N 37°48' E 025°42'4 7.0
2018-Aug-14 13:00N 37°45' E 025°43'3 6.9
2018-Aug-14 12:30N 37°42' E 025°44'2 4.0
2018-Aug-14 11:53N 37°39' E 025°44'2 1.9
2018-Aug-14 10:59N 37°41' E 025°44'1 1.8
2018-Aug-14 10:29N 37°42' E 025°43'1 1.8
2018-Aug-14 09:59N 37°42' E 025°43'1 1.9
2018-Aug-14 09:29N 37°43' E 025°42'1 1.8
2018-Aug-14 08:59N 37°44' E 025°42'1 1.6
2018-Aug-14 08:17N 37°45' E 025°41'1 1.5
2018-Aug-14 07:56N 37°46' E 025°41'1 1.6
2018-Aug-14 07:29N 37°46' E 025°41'1 1.8
2018-Aug-14 06:56N 37°47' E 025°40'1 1.8
2018-Aug-14 06:29N 37°48' E 025°40'1 1.9
2018-Aug-14 05:56N 37°49' E 025°40'1 1.9
2018-Aug-14 05:23N 37°50' E 025°40'1 2.0
2018-Aug-14 04:59N 37°51' E 025°39'2 0.1
2018-Aug-13 13:35N 37°53' E 025°38'0 7.3
2018-Aug-13 13:31N 37°52' E 025°38'4 7.4
2018-Aug-13 13:01N 37°48' E 025°38'4 7.1
2018-Aug-13 12:30N 37°45' E 025°39'4 7.3
2018-Aug-13 12:01N 37°41' E 025°40'4 7.9
2018-Aug-13 11:31N 37°37' E 025°41'4 7.7
2018-Aug-13 11:01N 37°34' E 025°42'2 4.5
2018-Aug-13 10:30N 37°32' E 025°40'1 1.9
2018-Aug-13 10:00N 37°33' E 025°40'1 1.9
2018-Aug-13 09:30N 37°34' E 025°40'1 1.9
2018-Aug-13 08:51N 37°36' E 025°39'1 1.8
2018-Aug-13 08:30N 37°36' E 025°39'1 1.8
2018-Aug-13 07:57N 37°37' E 025°39'1 1.8
2018-Aug-13 07:30N 37°38' E 025°39'1 1.8
2018-Aug-13 07:00N 37°39' E 025°39'1 1.9
2018-Aug-13 06:30N 37°40' E 025°39'1 1.9
2018-Aug-13 06:00N 37°41' E 025°39'1 1.8
2018-Aug-13 05:30N 37°42' E 025°39'1 1.8
2018-Aug-13 05:00N 37°43' E 025°39'1 1.9
2018-Aug-13 04:30N 37°43' E 025°38'1 2.0
2018-Aug-13 03:57N 37°45' E 025°38'1 2.2
2018-Aug-13 03:30N 37°46' E 025°38'1 2.3
2018-Aug-13 03:00N 37°47' E 025°38'1 2.1
2018-Aug-13 02:30N 37°48' E 025°38'1 1.8
2018-Aug-13 02:00N 37°49' E 025°38'1 1.6
2018-Aug-13 01:24N 37°50' E 025°37'1 1.3
2018-Aug-13 01:00N 37°50' E 025°37'1 1.2
2018-Aug-13 00:30N 37°51' E 025°37'1 1.2
2018-Aug-13 00:00N 37°51' E 025°37'1 1.4
2018-Aug-12 23:27N 37°52' E 025°37'1 1.6
2018-Aug-12 23:00N 37°53' E 025°37'0 0.0
2018-Aug-12 09:41N 37°53' E 025°37'1 8.2
2018-Aug-12 09:30N 37°52' E 025°37'4 8.2
2018-Aug-12 09:00N 37°47' E 025°37'4 8.4
2018-Aug-12 08:30N 37°43' E 025°38'4 8.2
2018-Aug-12 08:01N 37°39' E 025°38'4 8.5
2018-Aug-12 07:29N 37°35' E 025°39'4 8.1
2018-Aug-12 07:00N 37°31' E 025°40'1 1.7
2018-Aug-12 06:27N 37°32' E 025°40'1 1.8
2018-Aug-12 05:55N 37°33' E 025°40'1 1.5
2018-Aug-12 05:21N 37°34' E 025°40'1 1.4
2018-Aug-12 04:57N 37°34' E 025°40'1 1.3
2018-Aug-12 04:27N 37°35' E 025°40'1 1.1
2018-Aug-12 03:55N 37°35' E 025°40'0 1.0
2018-Aug-12 03:27N 37°36' E 025°40'1 1.1
2018-Aug-12 02:57N 37°36' E 025°40'1 1.1
2018-Aug-12 02:27N 37°37' E 025°39'1 1.3
2018-Aug-12 01:57N 37°38' E 025°39'1 1.4
2018-Aug-12 01:27N 37°38' E 025°39'1 1.6
2018-Aug-12 00:55N 37°39' E 025°39'1 1.8
2018-Aug-12 00:27N 37°40' E 025°40'1 2.1
2018-Aug-11 23:57N 37°41' E 025°40'1 2.2
2018-Aug-11 23:27N 37°42' E 025°40'1 2.2
2018-Aug-11 22:57N 37°43' E 025°40'1 2.0
2018-Aug-11 22:27N 37°44' E 025°39'1 1.8
2018-Aug-11 21:55N 37°45' E 025°39'1 1.7
2018-Aug-11 21:27N 37°46' E 025°39'1 1.7
2018-Aug-11 20:57N 37°47' E 025°39'1 1.9
2018-Aug-11 20:27N 37°48' E 025°38'1 2.1
2018-Aug-11 19:57N 37°49' E 025°38'1 2.3
2018-Aug-11 19:27N 37°50' E 025°38'1 2.4
2018-Aug-11 18:57N 37°51' E 025°37'1 2.3
2018-Aug-11 18:27N 37°52' E 025°37'1 2.2
2018-Aug-11 17:57N 37°53' E 025°36'2 0.3
2018-Aug-11 10:36N 37°54' E 025°34'1 7.3
2018-Aug-11 10:30N 37°53' E 025°34'4 7.2
2018-Aug-11 10:00N 37°50' E 025°34'4 7.2
2018-Aug-11 09:30N 37°46' E 025°34'4 7.2
2018-Aug-11 09:00N 37°42' E 025°34'3 6.8
2018-Aug-11 08:30N 37°39' E 025°34'3 6.5
2018-Aug-11 08:01N 37°36' E 025°34'3 6.3
2018-Aug-11 07:30N 37°33' E 025°34'2 4.1
2018-Aug-11 07:00N 37°31' E 025°34'2 3.1
2018-Aug-11 06:30N 37°32' E 025°34'2 3.3
2018-Aug-11 06:00N 37°34' E 025°34'2 3.1
2018-Aug-11 05:30N 37°35' E 025°34'1 2.9
2018-Aug-11 05:00N 37°37' E 025°34'1 2.7
2018-Aug-11 04:30N 37°38' E 025°33'1 2.7
2018-Aug-11 03:58N 37°40' E 025°33'1 2.5
2018-Aug-11 03:30N 37°41' E 025°33'1 2.7
2018-Aug-11 03:00N 37°42' E 025°33'1 2.6
2018-Aug-11 02:29N 37°43' E 025°33'1 2.7
2018-Aug-11 01:56N 37°45' E 025°33'1 2.5
2018-Aug-11 01:26N 37°46' E 025°33'1 2.4
2018-Aug-11 00:58N 37°47' E 025°33'1 2.1
2018-Aug-11 00:26N 37°48' E 025°32'1 2.1
2018-Aug-10 23:58N 37°49' E 025°32'1 2.3
2018-Aug-10 23:26N 37°51' E 025°32'1 2.1
2018-Aug-10 22:58N 37°51' E 025°32'1 2.0
2018-Aug-10 22:28N 37°52' E 025°31'1 2.0
2018-Aug-10 21:58N 37°53' E 025°31'5 0.5
2018-Aug-10 12:13N 37°56' E 025°26'1 6.9
2018-Aug-10 12:00N 37°54' E 025°26'3 6.7
2018-Aug-10 11:30N 37°51' E 025°25'3 6.5
2018-Aug-10 11:00N 37°48' E 025°24'6 6.4
2018-Aug-10 10:07N 37°42' E 025°23'1 6.1
2018-Aug-10 10:00N 37°42' E 025°23'3 6.1
2018-Aug-10 09:30N 37°39' E 025°22'5 6.2
2018-Aug-10 08:46N 37°34' E 025°21'2 6.1
2018-Aug-10 08:28N 37°33' E 025°20'3 6.3
2018-Aug-10 08:00N 37°31' E 025°17'3 5.7
2018-Aug-10 07:30N 37°29' E 025°14'3 6.7
2018-Aug-10 07:00N 37°28' E 025°10'3 6.8
2018-Aug-10 06:30N 37°27' E 025°06'4 8.2
2018-Aug-10 06:00N 37°25' E 025°01'2 4.2
2018-Aug-10 05:30N 37°25' E 024°59'0 0.1
2018-Aug-10 05:00N 37°25' E 024°59'0 0.1
2018-Aug-10 04:30N 37°25' E 024°59'0 0.1
2018-Aug-10 03:56N 37°25' E 024°59'0 0.0
2018-Aug-10 03:26N 37°25' E 024°59'0 0.0
2018-Aug-10 03:00N 37°25' E 024°59'0 0.1
2018-Aug-10 02:30N 37°25' E 024°59'0 0.0
2018-Aug-10 02:00N 37°25' E 024°59'0 0.1
2018-Aug-10 01:30N 37°25' E 024°59'0 0.0
2018-Aug-10 01:00N 37°25' E 024°59'0 0.0
2018-Aug-10 00:30N 37°25' E 024°59'0 0.1
2018-Aug-10 00:00N 37°25' E 024°59'0 0.0
2018-Aug-09 23:30N 37°25' E 024°59'0 0.0
2018-Aug-09 23:00N 37°25' E 024°59'0 0.0
2018-Aug-09 22:30N 37°25' E 024°59'0 0.0
2018-Aug-09 22:00N 37°25' E 024°59'0 0.0
2018-Aug-09 21:30N 37°25' E 024°59'0 0.0
2018-Aug-09 21:00N 37°25' E 024°59'0 0.0
2018-Aug-09 20:30N 37°25' E 024°59'0 0.0
2018-Aug-09 19:58N 37°25' E 024°59'0 0.1
2018-Aug-09 19:30N 37°25' E 024°59'0 0.0
2018-Aug-09 18:57N 37°25' E 024°59'0 0.0
2018-Aug-09 18:30N 37°25' E 024°59'0 0.0
2018-Aug-09 18:00N 37°25' E 024°59'0 0.0
2018-Aug-09 17:27N 37°25' E 024°59'0 0.1
2018-Aug-09 16:57N 37°25' E 024°59'0 0.0
2018-Aug-09 16:27N 37°25' E 024°59'0 0.0
2018-Aug-09 16:00N 37°25' E 024°59'0 0.1
2018-Aug-09 15:30N 37°25' E 024°59'0 0.0
2018-Aug-09 14:57N 37°25' E 024°59'0 0.0
2018-Aug-09 14:30N 37°25' E 024°59'0 0.0
2018-Aug-09 13:57N 37°25' E 024°59'0 0.0
2018-Aug-09 13:30N 37°25' E 024°59'0 0.0
2018-Aug-09 13:00N 37°25' E 024°59'0 0.1
2018-Aug-09 12:30N 37°25' E 024°59'0 0.1
2018-Aug-09 11:57N 37°25' E 024°59'0 0.0
2018-Aug-09 11:21N 37°25' E 024°59'0 0.0
2018-Aug-09 11:00N 37°25' E 024°59'0 0.0
2018-Aug-09 10:30N 37°25' E 024°59'0 0.0
2018-Aug-09 10:00N 37°25' E 024°59'0 0.1
2018-Aug-09 09:30N 37°25' E 024°59'0 0.0
2018-Aug-09 09:00N 37°25' E 024°59'0 0.0
2018-Aug-09 08:27N 37°25' E 024°59'0 0.0
2018-Aug-09 07:54N 37°25' E 024°59'0 0.1
2018-Aug-09 07:29N 37°25' E 024°59'0 0.1
2018-Aug-09 06:53N 37°25' E 024°59'0 0.0
2018-Aug-09 06:29N 37°25' E 024°59'0 0.0
2018-Aug-09 05:59N 37°25' E 024°59'0 0.0
2018-Aug-09 05:29N 37°25' E 024°59'0 0.0
2018-Aug-09 04:56N 37°25' E 024°59'0 0.0
2018-Aug-09 04:29N 37°25' E 024°59'0 0.0
2018-Aug-09 03:59N 37°25' E 024°59'0 0.0
2018-Aug-09 03:29N 37°25' E 024°59'0 0.0
2018-Aug-09 02:59N 37°25' E 024°59'0 0.0
2018-Aug-09 02:29N 37°25' E 024°59'0 0.0
2018-Aug-09 01:59N 37°25' E 024°59'0 0.1
2018-Aug-09 01:23N 37°25' E 024°59'0 0.2
2018-Aug-09 00:59N 37°25' E 024°59'0 0.1
2018-Aug-09 00:29N 37°25' E 024°59'0 0.1
2018-Aug-08 23:59N 37°25' E 024°59'0 0.1
2018-Aug-08 23:29N 37°25' E 024°59'0 0.0
2018-Aug-08 22:59N 37°25' E 024°59'0 0.1
2018-Aug-08 22:29N 37°25' E 024°59'0 0.0
2018-Aug-08 21:59N 37°25' E 024°59'0 0.0
2018-Aug-08 21:29N 37°25' E 024°59'0 0.1
2018-Aug-08 20:53N 37°25' E 024°59'0 0.1
2018-Aug-08 20:29N 37°25' E 024°59'0 0.0
2018-Aug-08 19:59N 37°25' E 024°59'0 0.0
2018-Aug-08 19:29N 37°25' E 024°59'0 0.0
2018-Aug-08 18:59N 37°25' E 024°59'0 0.1
2018-Aug-08 18:29N 37°25' E 024°59'0 0.1
2018-Aug-08 17:59N 37°25' E 024°59'0 0.0
2018-Aug-08 17:29N 37°25' E 024°59'0 0.0
2018-Aug-08 16:50N 37°25' E 024°59'0 0.0
2018-Aug-08 16:29N 37°25' E 024°59'0 0.1
2018-Aug-08 15:59N 37°25' E 024°59'0 0.0
2018-Aug-08 15:29N 37°25' E 024°59'0 0.0
2018-Aug-08 14:59N 37°25' E 024°59'0 0.0
2018-Aug-08 14:29N 37°25' E 024°59'0 0.0
2018-Aug-08 13:59N 37°25' E 024°59'0 0.0
2018-Aug-08 13:29N 37°25' E 024°59'0 0.1
2018-Aug-08 12:56N 37°25' E 024°59'0 0.0
2018-Aug-08 12:26N 37°25' E 024°59'0 0.0
2018-Aug-08 11:44N 37°25' E 024°59'0 0.0
2018-Aug-08 11:29N 37°25' E 024°59'0 0.0
2018-Aug-08 10:59N 37°25' E 024°59'0 0.0
2018-Aug-08 10:29N 37°25' E 024°59'0 0.0
2018-Aug-08 09:50N 37°25' E 024°59'0 0.1
2018-Aug-08 09:26N 37°25' E 024°59'0 0.0
2018-Aug-08 08:56N 37°25' E 024°59'0 0.1
2018-Aug-08 08:29N 37°25' E 024°59'0 0.0
2018-Aug-08 07:59N 37°25' E 024°59'0 0.1
2018-Aug-08 07:29N 37°25' E 024°59'0 0.1
2018-Aug-08 06:56N 37°25' E 024°59'0 0.0
2018-Aug-08 06:23N 37°25' E 024°59'0 0.0
2018-Aug-08 05:59N 37°25' E 024°59'0 0.0
2018-Aug-08 05:29N 37°25' E 024°59'0 0.1
2018-Aug-08 05:01N 37°25' E 024°59'1 1.6
2018-Aug-08 04:31N 37°25' E 024°60'5 9.3
2018-Aug-08 04:00N 37°27' E 025°05'5 9.9
2018-Aug-08 03:31N 37°28' E 025°11'510.1
2018-Aug-08 03:00N 37°31' E 025°17'611.6
2018-Aug-08 02:31N 37°35' E 025°22'611.3
2018-Aug-08 02:00N 37°39' E 025°27'611.4
2018-Aug-08 01:31N 37°43' E 025°31'4 7.1
2018-Aug-08 00:56N 37°47' E 025°33'1 2.4
2018-Aug-08 00:29N 37°48' E 025°33'1 2.2
2018-Aug-07 23:59N 37°49' E 025°32'1 2.2
2018-Aug-07 23:29N 37°50' E 025°32'1 2.1
2018-Aug-07 22:59N 37°52' E 025°32'1 2.1
2018-Aug-07 22:26N 37°53' E 025°32'1 2.1
2018-Aug-07 21:59N 37°54' E 025°32'1 0.1
2018-Aug-07 13:00N 37°54' E 025°34'4 8.5
2018-Aug-07 12:30N 37°50' E 025°35'4 8.3
2018-Aug-07 12:00N 37°46' E 025°36'4 8.4
2018-Aug-07 11:31N 37°42' E 025°37'4 8.7
2018-Aug-07 11:01N 37°38' E 025°38'4 8.7
2018-Aug-07 10:30N 37°33' E 025°40'1 1.1
2018-Aug-07 10:00N 37°34' E 025°40'1 1.8
2018-Aug-07 09:28N 37°35' E 025°40'1 1.8
2018-Aug-07 08:58N 37°36' E 025°40'1 1.8
2018-Aug-07 08:30N 37°37' E 025°40'1 1.8
2018-Aug-07 07:58N 37°37' E 025°40'1 1.7
2018-Aug-07 07:30N 37°38' E 025°39'1 1.7
2018-Aug-07 07:00N 37°39' E 025°39'1 1.7
2018-Aug-07 06:30N 37°40' E 025°39'1 1.7
2018-Aug-07 06:00N 37°41' E 025°39'1 1.7
2018-Aug-07 05:30N 37°42' E 025°39'1 1.7
2018-Aug-07 04:58N 37°43' E 025°38'1 1.6
2018-Aug-07 04:24N 37°43' E 025°38'1 1.6
2018-Aug-07 04:00N 37°44' E 025°38'1 1.6
2018-Aug-07 03:30N 37°45' E 025°37'1 1.7
2018-Aug-07 03:00N 37°45' E 025°37'1 1.8
2018-Aug-07 02:24N 37°47' E 025°37'1 2.0
2018-Aug-07 01:58N 37°47' E 025°36'1 2.1
2018-Aug-07 01:30N 37°48' E 025°36'1 2.1
2018-Aug-07 00:58N 37°49' E 025°36'1 2.1
2018-Aug-07 00:24N 37°51' E 025°36'1 2.1
2018-Aug-07 00:00N 37°51' E 025°35'1 2.1
2018-Aug-06 23:30N 37°52' E 025°35'1 0.1
2018-Aug-06 12:44N 37°53' E 025°37'2 7.9
2018-Aug-06 12:31N 37°51' E 025°37'4 8.0
2018-Aug-06 12:01N 37°48' E 025°39'4 8.3
2018-Aug-06 11:31N 37°44' E 025°42'4 8.5
2018-Aug-06 11:01N 37°40' E 025°44'1 1.6
2018-Aug-06 10:27N 37°39' E 025°44'1 1.2
2018-Aug-06 09:55N 37°40' E 025°44'1 1.0
2018-Aug-06 09:15N 37°40' E 025°44'0 1.2
2018-Aug-06 08:55N 37°41' E 025°43'1 1.4
2018-Aug-06 08:27N 37°41' E 025°43'1 1.4
2018-Aug-06 07:49N 37°42' E 025°43'0 1.2
2018-Aug-06 07:27N 37°43' E 025°43'1 1.3
2018-Aug-06 06:55N 37°43' E 025°43'1 1.3
2018-Aug-06 06:25N 37°44' E 025°42'1 1.4
2018-Aug-06 05:55N 37°45' E 025°42'1 1.4
2018-Aug-06 05:27N 37°45' E 025°41'1 1.4
2018-Aug-06 04:55N 37°46' E 025°41'1 1.1
2018-Aug-06 04:27N 37°46' E 025°41'1 1.2
2018-Aug-06 03:58N 37°47' E 025°41'1 1.1
2018-Aug-06 03:27N 37°47' E 025°40'1 1.0
2018-Aug-06 02:57N 37°48' E 025°40'1 1.1
2018-Aug-06 02:27N 37°48' E 025°40'1 1.1
2018-Aug-06 01:57N 37°49' E 025°40'1 1.3
2018-Aug-06 01:25N 37°49' E 025°39'1 1.5
2018-Aug-06 00:55N 37°50' E 025°39'1 1.5
2018-Aug-06 00:27N 37°51' E 025°39'1 1.7
2018-Aug-05 23:57N 37°52' E 025°38'6 0.5
2018-Aug-05 12:34N 37°55' E 025°32'0 8.1
2018-Aug-05 12:30N 37°54' E 025°32'4 8.1
2018-Aug-05 12:00N 37°50' E 025°32'4 8.0
2018-Aug-05 11:30N 37°46' E 025°33'4 8.0
2018-Aug-05 11:00N 37°42' E 025°34'4 8.4
2018-Aug-05 10:30N 37°38' E 025°35'1 2.0
2018-Aug-05 09:59N 37°38' E 025°36'1 1.8
2018-Aug-05 09:26N 37°39' E 025°36'1 1.9
2018-Aug-05 08:56N 37°40' E 025°36'1 2.2
2018-Aug-05 08:23N 37°41' E 025°36'1 2.2
2018-Aug-05 07:56N 37°42' E 025°36'1 2.3
2018-Aug-05 07:29N 37°43' E 025°36'1 2.4
2018-Aug-05 06:59N 37°44' E 025°36'1 2.2
2018-Aug-05 06:26N 37°45' E 025°36'1 2.2
2018-Aug-05 05:56N 37°46' E 025°36'1 2.1
2018-Aug-05 05:29N 37°47' E 025°36'1 2.2
2018-Aug-05 04:59N 37°49' E 025°36'1 2.2
2018-Aug-05 04:27N 37°50' E 025°35'1 2.3
2018-Aug-05 04:00N 37°51' E 025°35'1 2.2
2018-Aug-05 03:30N 37°52' E 025°34'1 2.1
2018-Aug-05 03:00N 37°53' E 025°34'1 2.0
2018-Aug-05 02:30N 37°54' E 025°33'  
Track history (hours):
 
Tides and Currents Weather Stations Pressure Air Temp Water Temp Dewpoint Dewpoint Depression Visibility Wind Speed Wind Dir Waves Ship Positions

Dock III

Last reported at 2018-Aug-14 13:51 UTC. Time now 2018-Aug-14 15:18 UTC.
Position N 37°51' E 025°41'.

Length 169 m; draft 5.6 m.

Type: Cargo ship. MMSI: 305351000.

Date/timePositionNaut miles runAvg speedWind from/ knotsBaromVisibWave heightAir tempDewpointWater temp
2018-Aug-14 13:51N 37°51' E 025°41'3 7.2
2018-Aug-14 13:30N 37°48' E 025°42'4 7.0
2018-Aug-14 13:00N 37°45' E 025°43'3 6.9
2018-Aug-14 12:30N 37°42' E 025°44'2 4.0
2018-Aug-14 11:53N 37°39' E 025°44'2 1.9
2018-Aug-14 10:59N 37°41' E 025°44'1 1.8
2018-Aug-14 10:29N 37°42' E 025°43'1 1.8
2018-Aug-14 09:59N 37°42' E 025°43'1 1.9
2018-Aug-14 09:29N 37°43' E 025°42'1 1.8
2018-Aug-14 08:59N 37°44' E 025°42'1 1.6
2018-Aug-14 08:17N 37°45' E 025°41'1 1.5
2018-Aug-14 07:56N 37°46' E 025°41'1 1.6
2018-Aug-14 07:29N 37°46' E 025°41'1 1.8
2018-Aug-14 06:56N 37°47' E 025°40'1 1.8
2018-Aug-14 06:29N 37°48' E 025°40'1 1.9
2018-Aug-14 05:56N 37°49' E 025°40'1 1.9
2018-Aug-14 05:23N 37°50' E 025°40'1 2.0
2018-Aug-14 04:59N 37°51' E 025°39'2 0.1
2018-Aug-13 13:35N 37°53' E 025°38'0 7.3
2018-Aug-13 13:31N 37°52' E 025°38'4 7.4
2018-Aug-13 13:01N 37°48' E 025°38'4 7.1
2018-Aug-13 12:30N 37°45' E 025°39'4 7.3
2018-Aug-13 12:01N 37°41' E 025°40'4 7.9
2018-Aug-13 11:31N 37°37' E 025°41'4 7.7
2018-Aug-13 11:01N 37°34' E 025°42'2 4.5
2018-Aug-13 10:30N 37°32' E 025°40'1 1.9
2018-Aug-13 10:00N 37°33' E 025°40'1 1.9
2018-Aug-13 09:30N 37°34' E 025°40'1 1.9
2018-Aug-13 08:51N 37°36' E 025°39'1 1.8
2018-Aug-13 08:30N 37°36' E 025°39'1 1.8
2018-Aug-13 07:57N 37°37' E 025°39'1 1.8
2018-Aug-13 07:30N 37°38' E 025°39'1 1.8
2018-Aug-13 07:00N 37°39' E 025°39'1 1.9
2018-Aug-13 06:30N 37°40' E 025°39'1 1.9
2018-Aug-13 06:00N 37°41' E 025°39'1 1.8
2018-Aug-13 05:30N 37°42' E 025°39'1 1.8
2018-Aug-13 05:00N 37°43' E 025°39'1 1.9
2018-Aug-13 04:30N 37°43' E 025°38'1 2.0
2018-Aug-13 03:57N 37°45' E 025°38'1 2.2
2018-Aug-13 03:30N 37°46' E 025°38'1 2.3
2018-Aug-13 03:00N 37°47' E 025°38'1 2.1
2018-Aug-13 02:30N 37°48' E 025°38'1 1.8
2018-Aug-13 02:00N 37°49' E 025°38'1 1.6
2018-Aug-13 01:24N 37°50' E 025°37'1 1.3
2018-Aug-13 01:00N 37°50' E 025°37'1 1.2
2018-Aug-13 00:30N 37°51' E 025°37'1 1.2
2018-Aug-13 00:00N 37°51' E 025°37'1 1.4
2018-Aug-12 23:27N 37°52' E 025°37'1 1.6
2018-Aug-12 23:00N 37°53' E 025°37'0 0.0
2018-Aug-12 09:41N 37°53' E 025°37'1 8.2
2018-Aug-12 09:30N 37°52' E 025°37'4 8.2
2018-Aug-12 09:00N 37°47' E 025°37'4 8.4
2018-Aug-12 08:30N 37°43' E 025°38'4 8.2
2018-Aug-12 08:01N 37°39' E 025°38'4 8.5
2018-Aug-12 07:29N 37°35' E 025°39'4 8.1
2018-Aug-12 07:00N 37°31' E 025°40'1 1.7
2018-Aug-12 06:27N 37°32' E 025°40'1 1.8
2018-Aug-12 05:55N 37°33' E 025°40'1 1.5
2018-Aug-12 05:21N 37°34' E 025°40'1 1.4
2018-Aug-12 04:57N 37°34' E 025°40'1 1.3
2018-Aug-12 04:27N 37°35' E 025°40'1 1.1
2018-Aug-12 03:55N 37°35' E 025°40'0 1.0
2018-Aug-12 03:27N 37°36' E 025°40'1 1.1
2018-Aug-12 02:57N 37°36' E 025°40'1 1.1
2018-Aug-12 02:27N 37°37' E 025°39'1 1.3
2018-Aug-12 01:57N 37°38' E 025°39'1 1.4
2018-Aug-12 01:27N 37°38' E 025°39'1 1.6
2018-Aug-12 00:55N 37°39' E 025°39'1 1.8
2018-Aug-12 00:27N 37°40' E 025°40'1 2.1
2018-Aug-11 23:57N 37°41' E 025°40'1 2.2
2018-Aug-11 23:27N 37°42' E 025°40'1 2.2
2018-Aug-11 22:57N 37°43' E 025°40'1 2.0
2018-Aug-11 22:27N 37°44' E 025°39'1 1.8
2018-Aug-11 21:55N 37°45' E 025°39'1 1.7
2018-Aug-11 21:27N 37°46' E 025°39'1 1.7
2018-Aug-11 20:57N 37°47' E 025°39'1 1.9
2018-Aug-11 20:27N 37°48' E 025°38'1 2.1
2018-Aug-11 19:57N 37°49' E 025°38'1 2.3
2018-Aug-11 19:27N 37°50' E 025°38'1 2.4
2018-Aug-11 18:57N 37°51' E 025°37'1 2.3
2018-Aug-11 18:27N 37°52' E 025°37'1 2.2
2018-Aug-11 17:57N 37°53' E 025°36'2 0.3
2018-Aug-11 10:36N 37°54' E 025°34'1 7.3
2018-Aug-11 10:30N 37°53' E 025°34'4 7.2
2018-Aug-11 10:00N 37°50' E 025°34'4 7.2
2018-Aug-11 09:30N 37°46' E 025°34'4 7.2
2018-Aug-11 09:00N 37°42' E 025°34'3 6.8
2018-Aug-11 08:30N 37°39' E 025°34'3 6.5
2018-Aug-11 08:01N 37°36' E 025°34'3 6.3
2018-Aug-11 07:30N 37°33' E 025°34'2 4.1
2018-Aug-11 07:00N 37°31' E 025°34'2 3.1
2018-Aug-11 06:30N 37°32' E 025°34'2 3.3
2018-Aug-11 06:00N 37°34' E 025°34'2 3.1
2018-Aug-11 05:30N 37°35' E 025°34'1 2.9
2018-Aug-11 05:00N 37°37' E 025°34'1 2.7
2018-Aug-11 04:30N 37°38' E 025°33'1 2.7
2018-Aug-11 03:58N 37°40' E 025°33'1 2.5
2018-Aug-11 03:30N 37°41' E 025°33'1 2.7
2018-Aug-11 03:00N 37°42' E 025°33'1 2.6
2018-Aug-11 02:29N 37°43' E 025°33'1 2.7
2018-Aug-11 01:56N 37°45' E 025°33'1 2.5
2018-Aug-11 01:26N 37°46' E 025°33'1 2.4
2018-Aug-11 00:58N 37°47' E 025°33'1 2.1
2018-Aug-11 00:26N 37°48' E 025°32'1 2.1
2018-Aug-10 23:58N 37°49' E 025°32'1 2.3
2018-Aug-10 23:26N 37°51' E 025°32'1 2.1
2018-Aug-10 22:58N 37°51' E 025°32'1 2.0
2018-Aug-10 22:28N 37°52' E 025°31'1 2.0
2018-Aug-10 21:58N 37°53' E 025°31'5 0.5
2018-Aug-10 12:13N 37°56' E 025°26'1 6.9
2018-Aug-10 12:00N 37°54' E 025°26'3 6.7
2018-Aug-10 11:30N 37°51' E 025°25'3 6.5
2018-Aug-10 11:00N 37°48' E 025°24'6 6.4
2018-Aug-10 10:07N 37°42' E 025°23'1 6.1
2018-Aug-10 10:00N 37°42' E 025°23'3 6.1
2018-Aug-10 09:30N 37°39' E 025°22'5 6.2
2018-Aug-10 08:46N 37°34' E 025°21'2 6.1
2018-Aug-10 08:28N 37°33' E 025°20'3 6.3
2018-Aug-10 08:00N 37°31' E 025°17'3 5.7
2018-Aug-10 07:30N 37°29' E 025°14'3 6.7
2018-Aug-10 07:00N 37°28' E 025°10'3 6.8
2018-Aug-10 06:30N 37°27' E 025°06'4 8.2
2018-Aug-10 06:00N 37°25' E 025°01'2 4.2
2018-Aug-10 05:30N 37°25' E 024°59'0 0.1
2018-Aug-10 05:00N 37°25' E 024°59'0 0.1
2018-Aug-10 04:30N 37°25' E 024°59'0 0.1
2018-Aug-10 03:56N 37°25' E 024°59'0 0.0
2018-Aug-10 03:26N 37°25' E 024°59'0 0.0
2018-Aug-10 03:00N 37°25' E 024°59'0 0.1
2018-Aug-10 02:30N 37°25' E 024°59'0 0.0
2018-Aug-10 02:00N 37°25' E 024°59'0 0.1
2018-Aug-10 01:30N 37°25' E 024°59'0 0.0
2018-Aug-10 01:00N 37°25' E 024°59'0 0.0
2018-Aug-10 00:30N 37°25' E 024°59'0 0.1
2018-Aug-10 00:00N 37°25' E 024°59'0 0.0
2018-Aug-09 23:30N 37°25' E 024°59'0 0.0
2018-Aug-09 23:00N 37°25' E 024°59'0 0.0
2018-Aug-09 22:30N 37°25' E 024°59'0 0.0
2018-Aug-09 22:00N 37°25' E 024°59'0 0.0
2018-Aug-09 21:30N 37°25' E 024°59'0 0.0
2018-Aug-09 21:00N 37°25' E 024°59'0 0.0
2018-Aug-09 20:30N 37°25' E 024°59'0 0.0
2018-Aug-09 19:58N 37°25' E 024°59'0 0.1
2018-Aug-09 19:30N 37°25' E 024°59'0 0.0
2018-Aug-09 18:57N 37°25' E 024°59'0 0.0
2018-Aug-09 18:30N 37°25' E 024°59'0 0.0
2018-Aug-09 18:00N 37°25' E 024°59'0 0.0
2018-Aug-09 17:27N 37°25' E 024°59'0 0.1
2018-Aug-09 16:57N 37°25' E 024°59'0 0.0
2018-Aug-09 16:27N 37°25' E 024°59'0 0.0
2018-Aug-09 16:00N 37°25' E 024°59'0 0.1
2018-Aug-09 15:30N 37°25' E 024°59'0 0.0
2018-Aug-09 14:57N 37°25' E 024°59'0 0.0
2018-Aug-09 14:30N 37°25' E 024°59'0 0.0
2018-Aug-09 13:57N 37°25' E 024°59'0 0.0
2018-Aug-09 13:30N 37°25' E 024°59'0 0.0
2018-Aug-09 13:00N 37°25' E 024°59'0 0.1
2018-Aug-09 12:30N 37°25' E 024°59'0 0.1
2018-Aug-09 11:57N 37°25' E 024°59'0 0.0
2018-Aug-09 11:21N 37°25' E 024°59'0 0.0
2018-Aug-09 11:00N 37°25' E 024°59'0 0.0
2018-Aug-09 10:30N 37°25' E 024°59'0 0.0
2018-Aug-09 10:00N 37°25' E 024°59'0 0.1
2018-Aug-09 09:30N 37°25' E 024°59'0 0.0
2018-Aug-09 09:00N 37°25' E 024°59'0 0.0
2018-Aug-09 08:27N 37°25' E 024°59'0 0.0
2018-Aug-09 07:54N 37°25' E 024°59'0 0.1
2018-Aug-09 07:29N 37°25' E 024°59'0 0.1
2018-Aug-09 06:53N 37°25' E 024°59'0 0.0
2018-Aug-09 06:29N 37°25' E 024°59'0 0.0
2018-Aug-09 05:59N 37°25' E 024°59'0 0.0
2018-Aug-09 05:29N 37°25' E 024°59'0 0.0
2018-Aug-09 04:56N 37°25' E 024°59'0 0.0
2018-Aug-09 04:29N 37°25' E 024°59'0 0.0
2018-Aug-09 03:59N 37°25' E 024°59'0 0.0
2018-Aug-09 03:29N 37°25' E 024°59'0 0.0
2018-Aug-09 02:59N 37°25' E 024°59'0 0.0
2018-Aug-09 02:29N 37°25' E 024°59'0 0.0
2018-Aug-09 01:59N 37°25' E 024°59'0 0.1
2018-Aug-09 01:23N 37°25' E 024°59'0 0.2
2018-Aug-09 00:59N 37°25' E 024°59'0 0.1
2018-Aug-09 00:29N 37°25' E 024°59'0 0.1
2018-Aug-08 23:59N 37°25' E 024°59'0 0.1
2018-Aug-08 23:29N 37°25' E 024°59'0 0.0
2018-Aug-08 22:59N 37°25' E 024°59'0 0.1
2018-Aug-08 22:29N 37°25' E 024°59'0 0.0
2018-Aug-08 21:59N 37°25' E 024°59'0 0.0
2018-Aug-08 21:29N 37°25' E 024°59'0 0.1
2018-Aug-08 20:53N 37°25' E 024°59'0 0.1
2018-Aug-08 20:29N 37°25' E 024°59'0 0.0
2018-Aug-08 19:59N 37°25' E 024°59'0 0.0
2018-Aug-08 19:29N 37°25' E 024°59'0 0.0
2018-Aug-08 18:59N 37°25' E 024°59'0 0.1
2018-Aug-08 18:29N 37°25' E 024°59'0 0.1
2018-Aug-08 17:59N 37°25' E 024°59'0 0.0
2018-Aug-08 17:29N 37°25' E 024°59'0 0.0
2018-Aug-08 16:50N 37°25' E 024°59'0 0.0
2018-Aug-08 16:29N 37°25' E 024°59'0 0.1
2018-Aug-08 15:59N 37°25' E 024°59'0 0.0
2018-Aug-08 15:29N 37°25' E 024°59'0 0.0
2018-Aug-08 14:59N 37°25' E 024°59'0 0.0
2018-Aug-08 14:29N 37°25' E 024°59'0 0.0
2018-Aug-08 13:59N 37°25' E 024°59'0 0.0
2018-Aug-08 13:29N 37°25' E 024°59'0 0.1
2018-Aug-08 12:56N 37°25' E 024°59'0 0.0
2018-Aug-08 12:26N 37°25' E 024°59'0 0.0
2018-Aug-08 11:44N 37°25' E 024°59'0 0.0
2018-Aug-08 11:29N 37°25' E 024°59'0 0.0
2018-Aug-08 10:59N 37°25' E 024°59'0 0.0
2018-Aug-08 10:29N 37°25' E 024°59'0 0.0
2018-Aug-08 09:50N 37°25' E 024°59'0 0.1
2018-Aug-08 09:26N 37°25' E 024°59'0 0.0
2018-Aug-08 08:56N 37°25' E 024°59'0 0.1
2018-Aug-08 08:29N 37°25' E 024°59'0 0.0
2018-Aug-08 07:59N 37°25' E 024°59'0 0.1
2018-Aug-08 07:29N 37°25' E 024°59'0 0.1
2018-Aug-08 06:56N 37°25' E 024°59'0 0.0
2018-Aug-08 06:23N 37°25' E 024°59'0 0.0
2018-Aug-08 05:59N 37°25' E 024°59'0 0.0
2018-Aug-08 05:29N 37°25' E 024°59'0 0.1
2018-Aug-08 05:01N 37°25' E 024°59'1 1.6
2018-Aug-08 04:31N 37°25' E 024°60'5 9.3
2018-Aug-08 04:00N 37°27' E 025°05'5 9.9
2018-Aug-08 03:31N 37°28' E 025°11'510.1
2018-Aug-08 03:00N 37°31' E 025°17'611.6
2018-Aug-08 02:31N 37°35' E 025°22'611.3
2018-Aug-08 02:00N 37°39' E 025°27'611.4
2018-Aug-08 01:31N 37°43' E 025°31'4 7.1
2018-Aug-08 00:56N 37°47' E 025°33'1 2.4
2018-Aug-08 00:29N 37°48' E 025°33'1 2.2
2018-Aug-07 23:59N 37°49' E 025°32'1 2.2
2018-Aug-07 23:29N 37°50' E 025°32'1 2.1
2018-Aug-07 22:59N 37°52' E 025°32'1 2.1
2018-Aug-07 22:26N 37°53' E 025°32'1 2.1
2018-Aug-07 21:59N 37°54' E 025°32'1 0.1
2018-Aug-07 13:00N 37°54' E 025°34'4 8.5
2018-Aug-07 12:30N 37°50' E 025°35'4 8.3
2018-Aug-07 12:00N 37°46' E 025°36'4 8.4
2018-Aug-07 11:31N 37°42' E 025°37'4 8.7
2018-Aug-07 11:01N 37°38' E 025°38'4 8.7
2018-Aug-07 10:30N 37°33' E 025°40'1 1.1
2018-Aug-07 10:00N 37°34' E 025°40'1 1.8
2018-Aug-07 09:28N 37°35' E 025°40'1 1.8
2018-Aug-07 08:58N 37°36' E 025°40'1 1.8
2018-Aug-07 08:30N 37°37' E 025°40'1 1.8
2018-Aug-07 07:58N 37°37' E 025°40'1 1.7
2018-Aug-07 07:30N 37°38' E 025°39'1 1.7
2018-Aug-07 07:00N 37°39' E 025°39'1 1.7
2018-Aug-07 06:30N 37°40' E 025°39'1 1.7
2018-Aug-07 06:00N 37°41' E 025°39'1 1.7
2018-Aug-07 05:30N 37°42' E 025°39'1 1.7
2018-Aug-07 04:58N 37°43' E 025°38'1 1.6
2018-Aug-07 04:24N 37°43' E 025°38'1 1.6
2018-Aug-07 04:00N 37°44' E 025°38'1 1.6
2018-Aug-07 03:30N 37°45' E 025°37'1 1.7
2018-Aug-07 03:00N 37°45' E 025°37'1 1.8
2018-Aug-07 02:24N 37°47' E 025°37'1 2.0
2018-Aug-07 01:58N 37°47' E 025°36'1 2.1
2018-Aug-07 01:30N 37°48' E 025°36'1 2.1
2018-Aug-07 00:58N 37°49' E 025°36'1 2.1
2018-Aug-07 00:24N 37°51' E 025°36'1 2.1
2018-Aug-07 00:00N 37°51' E 025°35'1 2.1
2018-Aug-06 23:30N 37°52' E 025°35'1 0.1
2018-Aug-06 12:44N 37°53' E 025°37'2 7.9
2018-Aug-06 12:31N 37°51' E 025°37'4 8.0
2018-Aug-06 12:01N 37°48' E 025°39'4 8.3
2018-Aug-06 11:31N 37°44' E 025°42'4 8.5
2018-Aug-06 11:01N 37°40' E 025°44'1 1.6
2018-Aug-06 10:27N 37°39' E 025°44'1 1.2
2018-Aug-06 09:55N 37°40' E 025°44'1 1.0
2018-Aug-06 09:15N 37°40' E 025°44'0 1.2
2018-Aug-06 08:55N 37°41' E 025°43'1 1.4
2018-Aug-06 08:27N 37°41' E 025°43'1 1.4
2018-Aug-06 07:49N 37°42' E 025°43'0 1.2
2018-Aug-06 07:27N 37°43' E 025°43'1 1.3
2018-Aug-06 06:55N 37°43' E 025°43'1 1.3
2018-Aug-06 06:25N 37°44' E 025°42'1 1.4
2018-Aug-06 05:55N 37°45' E 025°42'1 1.4
2018-Aug-06 05:27N 37°45' E 025°41'1 1.4
2018-Aug-06 04:55N 37°46' E 025°41'1 1.1
2018-Aug-06 04:27N 37°46' E 025°41'1 1.2
2018-Aug-06 03:58N 37°47' E 025°41'1 1.1
2018-Aug-06 03:27N 37°47' E 025°40'1 1.0
2018-Aug-06 02:57N 37°48' E 025°40'1 1.1
2018-Aug-06 02:27N 37°48' E 025°40'1 1.1
2018-Aug-06 01:57N 37°49' E 025°40'1 1.3
2018-Aug-06 01:25N 37°49' E 025°39'1 1.5
2018-Aug-06 00:55N 37°50' E 025°39'1 1.5
2018-Aug-06 00:27N 37°51' E 025°39'1 1.7
2018-Aug-05 23:57N 37°52' E 025°38'6 0.5
2018-Aug-05 12:34N 37°55' E 025°32'0 8.1
2018-Aug-05 12:30N 37°54' E 025°32'4 8.1
2018-Aug-05 12:00N 37°50' E 025°32'4 8.0
2018-Aug-05 11:30N 37°46' E 025°33'4 8.0
2018-Aug-05 11:00N 37°42' E 025°34'4 8.4
2018-Aug-05 10:30N 37°38' E 025°35'1 2.0
2018-Aug-05 09:59N 37°38' E 025°36'1 1.8
2018-Aug-05 09:26N 37°39' E 025°36'1 1.9
2018-Aug-05 08:56N 37°40' E 025°36'1 2.2
2018-Aug-05 08:23N 37°41' E 025°36'1 2.2
2018-Aug-05 07:56N 37°42' E 025°36'1 2.3
2018-Aug-05 07:29N 37°43' E 025°36'1 2.4
2018-Aug-05 06:59N 37°44' E 025°36'1 2.2
2018-Aug-05 06:26N 37°45' E 025°36'1 2.2
2018-Aug-05 05:56N 37°46' E 025°36'1 2.1
2018-Aug-05 05:29N 37°47' E 025°36'1 2.2
2018-Aug-05 04:59N 37°49' E 025°36'1 2.2
2018-Aug-05 04:27N 37°50' E 025°35'1 2.3
2018-Aug-05 04:00N 37°51' E 025°35'1 2.2
2018-Aug-05 03:30N 37°52' E 025°34'1 2.1
2018-Aug-05 03:00N 37°53' E 025°34'1 2.0
2018-Aug-05 02:30N 37°54' E 025°33'  

Dump ship's entire track history